createdAt,value
2019-01-17T00:00:37.202Z,4.90
2019-01-17T00:03:24.640Z,4.60
2019-01-17T00:06:14.254Z,4.83
2019-01-17T00:09:21.115Z,4.67
2019-01-17T00:12:00.663Z,5.10
2019-01-17T00:14:51.981Z,4.70
2019-01-17T00:17:40.053Z,5.47
2019-01-17T00:20:27.687Z,5.60
2019-01-17T00:23:18.180Z,5.50
2019-01-17T00:26:09.661Z,5.60
2019-01-17T00:29:07.738Z,5.43
2019-01-17T00:31:59.236Z,6.17
2019-01-17T00:34:48.422Z,7.83
2019-01-17T00:37:37.388Z,6.60
2019-01-17T00:40:30.321Z,6.23
2019-01-17T00:43:18.570Z,6.27
2019-01-17T00:46:10.858Z,5.87
2019-01-17T00:49:01.762Z,6.20
2019-01-17T00:51:49.411Z,6.00
2019-01-17T00:54:40.748Z,5.37
2019-01-17T00:57:23.321Z,5.97
2019-01-17T01:00:01.368Z,5.80
2019-01-17T01:02:56.420Z,5.80
2019-01-17T01:06:03.764Z,5.80
2019-01-17T01:09:11.080Z,5.80
2019-01-17T01:11:53.687Z,6.33
2019-01-17T01:14:58.386Z,6.10
2019-01-17T01:17:54.528Z,6.60
2019-01-17T01:20:44.001Z,5.70
2019-01-17T01:23:31.738Z,7.27
2019-01-17T01:26:35.632Z,7.03
2019-01-17T01:29:27.678Z,6.63
2019-01-17T01:32:08.191Z,7.37
2019-01-17T01:35:09.885Z,7.43
2019-01-17T01:38:06.066Z,7.57
2019-01-17T01:40:55.267Z,8.00
2019-01-17T01:43:44.468Z,8.07
2019-01-17T01:46:25.896Z,7.53
2019-01-17T01:49:13.953Z,8.50
2019-01-17T01:52:17.506Z,7.87
2019-01-17T01:54:47.686Z,7.97
2019-01-17T01:57:19.065Z,8.13
2019-01-17T01:59:48.692Z,8.30
2019-01-17T02:02:18.849Z,8.13
2019-01-17T02:04:48.884Z,8.53
2019-01-17T02:07:18.998Z,8.20
2019-01-17T02:09:49.521Z,8.60
2019-01-17T02:12:19.578Z,7.80
2019-01-17T02:14:49.349Z,8.07
2019-01-17T02:17:22.693Z,8.50
2019-01-17T02:19:52.530Z,9.53
2019-01-17T02:22:22.055Z,9.00
2019-01-17T02:24:53.099Z,8.10
2019-01-17T02:27:23.275Z,7.23
2019-01-17T02:29:52.790Z,7.47
2019-01-17T02:32:22.839Z,7.67
2019-01-17T02:34:52.008Z,7.43
2019-01-17T02:37:21.679Z,7.40
2019-01-17T02:39:51.999Z,8.20
2019-01-17T02:42:22.494Z,8.87
2019-01-17T02:44:52.971Z,8.47
2019-01-17T02:47:23.718Z,8.60
2019-01-17T02:49:54.867Z,8.73
2019-01-17T02:52:26.207Z,8.00
2019-01-17T02:54:55.423Z,7.67
2019-01-17T02:57:25.666Z,7.10
2019-01-17T02:59:56.838Z,7.03
2019-01-17T03:02:26.347Z,7.97
2019-01-17T03:04:56.579Z,7.87
2019-01-17T03:07:26.438Z,8.60
2019-01-17T03:09:55.630Z,8.77
2019-01-17T03:12:26.698Z,8.63
2019-01-17T03:14:56.365Z,9.20
2019-01-17T03:17:26.202Z,8.97
2019-01-17T03:19:56.260Z,9.00
2019-01-17T03:22:26.425Z,8.10
2019-01-17T03:24:56.640Z,7.67
2019-01-17T03:27:27.013Z,7.87
2019-01-17T03:29:58.215Z,8.30
2019-01-17T03:32:28.520Z,8.20
2019-01-17T03:34:57.646Z,8.10
2019-01-17T03:37:30.150Z,8.17
2019-01-17T03:40:01.476Z,8.53
2019-01-17T03:42:31.837Z,8.50
2019-01-17T03:45:02.036Z,8.70
2019-01-17T03:47:31.420Z,8.27
2019-01-17T03:50:01.971Z,8.30
2019-01-17T03:52:32.648Z,8.70
2019-01-17T03:55:03.866Z,9.07
2019-01-17T03:57:34.690Z,8.67
2019-01-17T04:00:07.117Z,8.40
2019-01-17T04:02:37.467Z,8.70
2019-01-17T04:05:08.276Z,8.57
2019-01-17T04:07:38.396Z,8.60
2019-01-17T04:10:12.203Z,8.40
2019-01-17T04:12:41.798Z,8.27
2019-01-17T04:15:13.388Z,8.77
2019-01-17T04:17:43.834Z,8.80
2019-01-17T04:20:18.676Z,8.70
2019-01-17T04:22:49.415Z,8.73
2019-01-17T04:25:20.785Z,8.57
2019-01-17T04:27:50.324Z,8.60
2019-01-17T04:30:19.678Z,9.47
2019-01-17T04:32:49.747Z,8.70
2019-01-17T04:35:20.264Z,8.53
2019-01-17T04:37:50.252Z,8.63
2019-01-17T04:40:21.386Z,8.90
2019-01-17T04:42:51.548Z,7.60
2019-01-17T04:45:22.305Z,7.90
2019-01-17T04:47:52.155Z,7.17
2019-01-17T04:50:21.647Z,7.40
2019-01-17T04:52:52.283Z,7.80
2019-01-17T04:55:23.633Z,7.93
2019-01-17T04:57:53.389Z,6.90
2019-01-17T05:00:24.038Z,7.23
2019-01-17T05:02:54.323Z,7.53
2019-01-17T05:05:25.263Z,7.00
2019-01-17T05:07:55.509Z,6.70
2019-01-17T05:10:24.520Z,5.70
2019-01-17T05:12:54.665Z,5.47
2019-01-17T05:15:23.820Z,6.23
2019-01-17T05:17:53.447Z,5.47
2019-01-17T05:20:23.802Z,5.90
2019-01-17T05:22:54.155Z,5.20
2019-01-17T05:25:23.495Z,5.70
2019-01-17T05:27:54.466Z,6.90
2019-01-17T05:30:26.758Z,6.40
2019-01-17T05:32:57.588Z,6.00
2019-01-17T05:35:28.047Z,6.47
2019-01-17T05:37:58.871Z,6.83
2019-01-17T05:40:27.577Z,6.70
2019-01-17T05:42:58.238Z,7.27
2019-01-17T05:45:28.072Z,7.37
2019-01-17T05:47:58.060Z,7.10
2019-01-17T05:50:28.870Z,7.27
2019-01-17T05:52:58.579Z,5.90
2019-01-17T05:55:29.353Z,5.80
2019-01-17T05:57:58.618Z,5.37
2019-01-17T06:00:28.451Z,5.70
2019-01-17T06:02:59.076Z,5.00
2019-01-17T06:05:30.519Z,4.43
2019-01-17T06:08:00.638Z,4.57
2019-01-17T06:10:31.420Z,4.73
2019-01-17T06:13:01.073Z,4.27
2019-01-17T06:15:32.718Z,4.30
2019-01-17T06:18:03.881Z,4.20
2019-01-17T06:20:34.818Z,4.50
2019-01-17T06:23:04.820Z,7.77
2019-01-17T06:25:33.625Z,7.10
2019-01-17T06:28:03.335Z,7.23
2019-01-17T06:30:33.338Z,7.53
2019-01-17T06:33:03.267Z,7.57
2019-01-17T06:35:32.863Z,7.17
2019-01-17T06:38:02.259Z,6.60
2019-01-17T06:40:33.809Z,7.03
2019-01-17T06:43:05.908Z,6.37
2019-01-17T06:45:35.449Z,6.10
2019-01-17T06:48:05.168Z,5.90
2019-01-17T06:50:34.745Z,5.00
2019-01-17T06:53:04.005Z,5.20
2019-01-17T06:55:34.477Z,4.97
2019-01-17T06:58:04.167Z,4.03
2019-01-17T07:00:35.091Z,4.03
2019-01-17T07:03:07.038Z,4.00
2019-01-17T07:05:38.462Z,4.30
2019-01-17T07:08:09.819Z,4.53
2019-01-17T07:10:40.285Z,4.00
2019-01-17T07:13:11.607Z,4.20
2019-01-17T07:15:42.850Z,4.47
2019-01-17T07:18:14.722Z,4.23
2019-01-17T07:20:45.850Z,5.70
2019-01-17T07:23:14.968Z,7.40
2019-01-17T07:25:45.545Z,6.93
2019-01-17T07:28:14.418Z,4.73
2019-01-17T07:30:44.712Z,4.10
2019-01-17T07:33:16.404Z,4.10
2019-01-17T07:35:46.583Z,4.97
2019-01-17T07:38:16.718Z,5.90
2019-01-17T07:40:47.183Z,4.03
2019-01-17T07:43:16.420Z,3.70
2019-01-17T07:45:46.467Z,3.50
2019-01-17T07:48:18.687Z,5.00
2019-01-17T07:50:48.571Z,7.43
2019-01-17T07:53:18.096Z,6.03
2019-01-17T07:55:48.299Z,5.17
2019-01-17T07:58:18.689Z,5.17
2019-01-17T08:00:50.070Z,3.77
2019-01-17T08:03:20.580Z,4.03
2019-01-17T08:05:51.860Z,4.30
2019-01-17T08:08:22.478Z,3.97
2019-01-17T08:10:53.793Z,4.03
2019-01-17T08:13:23.603Z,3.93
2019-01-17T08:15:54.218Z,4.37
2019-01-17T08:18:24.850Z,4.40
2019-01-17T08:20:54.658Z,4.17
2019-01-17T08:23:24.986Z,5.03
2019-01-17T08:25:55.682Z,4.10
2019-01-17T08:28:25.885Z,4.20
2019-01-17T08:30:55.713Z,4.00
2019-01-17T08:33:25.956Z,4.40
2019-01-17T08:35:56.082Z,7.50
2019-01-17T08:38:25.836Z,12.60
2019-01-17T08:40:56.468Z,4.13
2019-01-17T08:43:26.954Z,4.20
2019-01-17T08:45:57.400Z,4.50
2019-01-17T08:48:29.673Z,4.40
2019-01-17T08:50:59.418Z,3.67
2019-01-17T08:53:30.296Z,4.03
2019-01-17T08:56:00.846Z,4.10
2019-01-17T08:58:30.911Z,4.67
2019-01-17T09:00:59.979Z,4.50
2019-01-17T09:03:32.208Z,4.50
2019-01-17T09:06:04.420Z,4.10
2019-01-17T09:08:36.442Z,4.20
2019-01-17T09:11:07.840Z,4.97
2019-01-17T09:13:38.113Z,4.87
2019-01-17T09:16:09.147Z,4.67
2019-01-17T09:18:39.673Z,4.23
2019-01-17T09:21:09.978Z,5.00
2019-01-17T09:23:40.677Z,4.33
2019-01-17T09:26:10.930Z,4.07
2019-01-17T09:28:41.521Z,4.47
2019-01-17T09:31:11.791Z,4.50
2019-01-17T09:33:42.630Z,4.00
2019-01-17T09:36:13.065Z,3.97
2019-01-17T09:38:44.923Z,4.37
2019-01-17T09:41:15.523Z,4.33
2019-01-17T09:43:46.713Z,4.57
2019-01-17T09:46:17.856Z,4.20
2019-01-17T09:48:48.243Z,5.37
2019-01-17T09:51:17.115Z,4.67
2019-01-17T09:53:48.718Z,4.40
2019-01-17T09:56:20.626Z,4.47
2019-01-17T09:58:51.378Z,4.53
2019-01-17T10:01:20.798Z,4.10
2019-01-17T10:03:50.530Z,4.53
2019-01-17T10:06:21.710Z,4.30
2019-01-17T10:08:51.164Z,4.30
2019-01-17T10:11:22.298Z,4.27
2019-01-17T10:13:52.849Z,4.03
2019-01-17T10:17:18.913Z,3.90
2019-01-17T10:20:37.567Z,4.17
2019-01-17T10:24:08.770Z,4.83
2019-01-17T10:27:38.600Z,4.90
2019-01-17T10:31:26.969Z,3.13
2019-01-17T10:34:39.622Z,3.23
2019-01-17T10:38:14.470Z,3.70
2019-01-17T10:41:49.663Z,3.60
2019-01-17T10:44:44.697Z,4.10
2019-01-17T10:48:07.335Z,4.20
2019-01-17T10:51:19.023Z,3.43
2019-01-17T10:54:55.299Z,3.57
2019-01-17T10:58:09.839Z,4.63
2019-01-17T11:01:36.750Z,3.57
2019-01-17T11:05:20.846Z,4.20
2019-01-17T11:08:39.458Z,3.87
2019-01-17T11:11:52.756Z,4.20
2019-01-17T11:15:00.845Z,4.60
2019-01-17T11:18:23.608Z,4.50
2019-01-17T11:21:33.161Z,5.50
2019-01-17T11:25:14.566Z,10.23
2019-01-17T11:28:58.582Z,9.03
2019-01-17T11:32:39.626Z,20.17
2019-01-17T11:36:00.211Z,5.40
2019-01-17T11:39:15.538Z,5.30
2019-01-17T11:43:03.846Z,6.90
2019-01-17T11:46:42.907Z,6.90
2019-01-17T11:50:04.269Z,6.73
2019-01-17T11:53:43.530Z,6.63
2019-01-17T11:57:18.176Z,7.33
2019-01-17T12:00:28.454Z,6.90
2019-01-17T12:03:57.996Z,7.73
2019-01-17T12:06:28.560Z,6.93
2019-01-17T12:08:59.615Z,7.63
2019-01-17T12:11:29.262Z,6.03
2019-01-17T12:13:59.037Z,6.77
2019-01-17T12:16:31.018Z,7.10
2019-01-17T12:19:02.036Z,7.50
2019-01-17T12:21:32.336Z,6.93
2019-01-17T12:24:03.153Z,7.10
2019-01-17T12:26:32.511Z,9.17
2019-01-17T12:29:04.682Z,8.87
2019-01-17T12:31:34.149Z,8.23
2019-01-17T12:34:05.336Z,16.03
2019-01-17T12:36:35.653Z,18.63
2019-01-17T12:39:09.723Z,11.50
2019-01-17T12:41:41.754Z,6.97
2019-01-17T12:44:13.047Z,15.10
2019-01-17T12:46:42.358Z,9.77
2019-01-17T12:49:12.441Z,9.93
2019-01-17T12:51:42.691Z,8.87
2019-01-17T12:54:13.256Z,9.70
2019-01-17T12:56:44.541Z,10.60
2019-01-17T12:59:14.459Z,10.20
2019-01-17T13:01:45.660Z,10.30
2019-01-17T13:04:16.918Z,9.87
2019-01-17T13:06:48.285Z,12.67
2019-01-17T13:09:20.267Z,12.40
2019-01-17T13:11:51.841Z,12.77
2019-01-17T13:14:23.003Z,11.03
2019-01-17T13:16:53.433Z,9.97
2019-01-17T13:19:25.374Z,11.97
2019-01-17T13:21:55.434Z,9.90
2019-01-17T13:24:25.268Z,5.60
2019-01-17T13:27:00.747Z,7.13
2019-01-17T13:29:27.588Z,5.17
2019-01-17T13:31:57.556Z,3.90
2019-01-17T13:34:27.013Z,3.80
2019-01-17T13:36:57.357Z,3.83
2019-01-17T13:39:28.140Z,3.37
2019-01-17T13:41:57.376Z,3.23
2019-01-17T13:44:32.146Z,10.57
2019-01-17T13:47:04.053Z,3.10
2019-01-17T13:49:33.776Z,2.70
2019-01-17T13:52:04.016Z,2.90
2019-01-17T13:54:34.600Z,9.20
2019-01-17T13:57:07.694Z,6.20
2019-01-17T13:59:38.633Z,4.33
2019-01-17T14:02:09.842Z,5.00
2019-01-17T14:04:40.725Z,3.67
2019-01-17T14:07:10.713Z,3.10
2019-01-17T14:09:39.801Z,3.63
2019-01-17T14:12:14.118Z,3.60
2019-01-17T14:14:45.525Z,3.07
2019-01-17T14:17:17.373Z,2.57
2019-01-17T14:19:48.114Z,3.00
2019-01-17T14:22:19.178Z,2.50
2019-01-17T14:24:49.110Z,2.33
2019-01-17T14:27:18.377Z,2.20
2019-01-17T14:29:48.229Z,2.57
2019-01-17T14:32:19.744Z,2.17
2019-01-17T14:34:50.962Z,8.70
2019-01-17T14:37:21.913Z,3.37
2019-01-17T14:39:52.548Z,1.80
2019-01-17T14:42:23.276Z,2.23
2019-01-17T14:44:53.489Z,2.43
2019-01-17T14:47:24.020Z,2.60
2019-01-17T14:49:53.735Z,2.30
2019-01-17T14:52:24.003Z,2.30
2019-01-17T14:54:53.853Z,3.30
2019-01-17T14:57:23.696Z,2.73
2019-01-17T14:59:56.273Z,2.50
2019-01-17T15:02:26.861Z,3.60
2019-01-17T15:05:00.414Z,2.50
2019-01-17T15:07:30.514Z,3.10
2019-01-17T15:10:01.106Z,3.10
2019-01-17T15:12:30.516Z,3.07
2019-01-17T15:15:02.135Z,3.73
2019-01-17T15:17:32.630Z,2.63
2019-01-17T15:20:02.453Z,2.93
2019-01-17T15:22:32.831Z,3.70
2019-01-17T15:25:03.876Z,2.97
2019-01-17T15:27:35.653Z,2.97
2019-01-17T15:30:13.376Z,3.83
2019-01-17T15:32:44.830Z,4.07
2019-01-17T15:35:18.425Z,2.67
2019-01-17T15:37:49.168Z,2.90
2019-01-17T15:40:30.514Z,3.23
2019-01-17T15:43:01.265Z,3.47
2019-01-17T15:45:31.221Z,3.03
2019-01-17T15:48:03.071Z,3.30
2019-01-17T15:50:36.173Z,2.53
2019-01-17T15:53:06.395Z,3.00
2019-01-17T15:55:38.918Z,4.50
2019-01-17T15:58:09.202Z,3.80
2019-01-17T16:00:40.295Z,6.33
2019-01-17T16:03:11.126Z,6.17
2019-01-17T16:05:41.724Z,8.90
2019-01-17T16:08:11.930Z,5.23
2019-01-17T16:10:42.491Z,6.00
2019-01-17T16:13:13.562Z,6.23
2019-01-17T16:15:44.138Z,8.47
2019-01-17T16:18:17.822Z,6.60
2019-01-17T16:20:49.682Z,4.60
2019-01-17T16:23:19.603Z,5.30
2019-01-17T16:25:50.014Z,5.50
2019-01-17T16:28:19.668Z,4.87
2019-01-17T16:30:49.858Z,5.30
2019-01-17T16:33:21.494Z,6.40
2019-01-17T16:35:52.254Z,6.67
2019-01-17T16:38:23.151Z,5.57
2019-01-17T16:40:54.453Z,4.07
2019-01-17T16:43:25.583Z,3.93
2019-01-17T16:45:58.040Z,4.60
2019-01-17T16:48:28.804Z,4.63
2019-01-17T16:51:00.075Z,5.63
2019-01-17T16:53:32.111Z,4.40
2019-01-17T16:56:04.516Z,6.60
2019-01-17T16:58:35.913Z,7.00
2019-01-17T17:01:05.720Z,6.67
2019-01-17T17:03:37.153Z,9.67
2019-01-17T17:06:07.574Z,7.60
2019-01-17T17:08:38.722Z,6.70
2019-01-17T17:11:09.230Z,5.67
2019-01-17T17:13:39.628Z,5.03
2019-01-17T17:16:10.376Z,4.80
2019-01-17T17:18:40.268Z,4.73
2019-01-17T17:21:10.587Z,5.67
2019-01-17T17:23:40.585Z,5.93
2019-01-17T17:26:11.586Z,5.10
2019-01-17T17:28:41.923Z,4.90
2019-01-17T17:31:11.487Z,4.53
2019-01-17T17:33:43.125Z,4.63
2019-01-17T17:36:15.387Z,4.60
2019-01-17T17:38:49.022Z,3.77
2019-01-17T17:41:20.833Z,9.23
2019-01-17T17:43:51.575Z,4.20
2019-01-17T17:46:26.994Z,4.40
2019-01-17T17:48:59.773Z,4.67
2019-01-17T17:51:31.003Z,4.83
2019-01-17T17:54:03.644Z,6.20
2019-01-17T17:56:34.051Z,5.87
2019-01-17T17:59:04.013Z,6.67
2019-01-17T18:01:38.102Z,5.47
2019-01-17T18:04:09.553Z,5.07
2019-01-17T18:06:40.054Z,6.33
2019-01-17T18:09:12.138Z,6.30
2019-01-17T18:11:41.572Z,5.60
2019-01-17T18:14:11.867Z,8.70
2019-01-17T18:16:43.415Z,7.07
2019-01-17T18:19:13.601Z,6.10
2019-01-17T18:21:44.179Z,7.47
2019-01-17T18:24:14.798Z,7.30
2019-01-17T18:26:46.006Z,8.93
2019-01-17T18:29:16.925Z,6.47
2019-01-17T18:31:49.663Z,12.93
2019-01-17T18:34:20.932Z,7.97
2019-01-17T18:36:51.956Z,6.33
2019-01-17T18:39:24.917Z,7.30
2019-01-17T18:41:55.927Z,5.77
2019-01-17T18:44:25.691Z,5.40
2019-01-17T18:46:55.928Z,6.70
2019-01-17T18:49:27.048Z,9.20
2019-01-17T18:51:57.053Z,10.63
2019-01-17T18:54:28.942Z,6.70
2019-01-17T18:57:00.881Z,6.70
2019-01-17T18:59:31.905Z,8.00
2019-01-17T19:02:01.932Z,17.70
2019-01-17T19:04:33.371Z,14.67
2019-01-17T19:07:04.249Z,12.90
2019-01-17T19:09:33.763Z,13.57
2019-01-17T19:12:04.092Z,9.63
2019-01-17T19:14:34.628Z,10.47
2019-01-17T19:17:05.769Z,13.17
2019-01-17T19:19:36.560Z,13.90
2019-01-17T19:22:08.346Z,14.77
2019-01-17T19:24:37.851Z,16.23
2019-01-17T19:27:08.350Z,15.27
2019-01-17T19:29:39.422Z,14.83
2019-01-17T19:32:09.560Z,16.07
2019-01-17T19:34:39.774Z,15.07
2019-01-17T19:37:10.136Z,13.50
2019-01-17T19:39:40.968Z,14.20
2019-01-17T19:42:11.037Z,14.80
2019-01-17T19:44:41.087Z,15.07
2019-01-17T19:47:12.534Z,17.80
2019-01-17T19:49:44.720Z,16.23
2019-01-17T19:52:14.961Z,14.10
2019-01-17T19:54:45.053Z,14.37
2019-01-17T19:57:15.910Z,15.87
2019-01-17T19:59:50.799Z,19.40
2019-01-17T20:02:21.044Z,12.53
2019-01-17T20:04:51.996Z,13.97
2019-01-17T20:07:27.019Z,13.37
2019-01-17T20:09:58.987Z,13.13
2019-01-17T20:12:30.741Z,13.57
2019-01-17T20:15:02.185Z,15.60
2019-01-17T20:17:32.294Z,15.43
2019-01-17T20:20:02.659Z,16.40
2019-01-17T20:22:34.387Z,15.37
2019-01-17T20:25:08.454Z,20.33
2019-01-17T20:27:39.133Z,19.03
2019-01-17T20:30:26.039Z,22.70
2019-01-17T20:33:00.566Z,19.37
2019-01-17T20:35:30.632Z,22.43
2019-01-17T20:38:03.079Z,20.20
2019-01-17T20:40:34.163Z,19.77
2019-01-17T20:43:07.493Z,20.83
2019-01-17T20:45:38.835Z,20.43
2019-01-17T20:48:09.701Z,21.57
2019-01-17T20:50:41.462Z,21.03
2019-01-17T20:53:13.354Z,19.87
2019-01-17T20:55:44.981Z,21.20
2019-01-17T20:58:16.865Z,20.30
2019-01-17T21:01:48.226Z,16.80
2019-01-17T21:04:19.947Z,18.00
2019-01-17T21:06:52.106Z,17.13
2019-01-17T21:09:22.336Z,16.70
2019-01-17T21:11:53.348Z,17.33
2019-01-17T21:14:25.101Z,16.00
2019-01-17T21:16:55.019Z,15.63
2019-01-17T21:19:25.161Z,14.63
2019-01-17T21:21:58.358Z,17.07
2019-01-17T21:24:29.346Z,15.27
2019-01-17T21:27:01.917Z,17.30
2019-01-17T21:29:34.144Z,16.00
2019-01-17T21:32:05.136Z,18.17
2019-01-17T21:34:42.815Z,17.17
2019-01-17T21:37:16.871Z,17.93
2019-01-17T21:39:47.587Z,16.50
2019-01-17T21:42:35.211Z,17.40
2019-01-17T21:45:12.389Z,20.87
2019-01-17T21:47:43.951Z,19.67
2019-01-17T21:50:20.429Z,21.03
2019-01-17T21:52:52.961Z,21.20
2019-01-17T21:55:24.676Z,21.73
2019-01-17T21:57:55.646Z,22.00
2019-01-17T22:00:27.486Z,22.73
2019-01-17T22:02:59.269Z,22.00
2019-01-17T22:05:29.965Z,20.87
2019-01-17T22:08:01.008Z,22.57
2019-01-17T22:10:31.815Z,24.50
2019-01-17T22:13:03.981Z,24.40
2019-01-17T22:15:34.674Z,24.37
2019-01-17T22:18:05.553Z,24.40
2019-01-17T22:20:37.894Z,24.70
2019-01-17T22:23:10.388Z,24.23
2019-01-17T22:25:42.453Z,27.53
2019-01-17T22:28:14.360Z,27.23
2019-01-17T22:30:45.268Z,27.20
2019-01-17T22:33:16.496Z,29.00
2019-01-17T22:35:49.874Z,28.97
2019-01-17T22:38:20.528Z,27.53
2019-01-17T22:40:52.291Z,28.67
2019-01-17T22:43:26.408Z,27.87
2019-01-17T22:45:57.145Z,29.83
2019-01-17T22:48:26.878Z,28.07
2019-01-17T22:50:56.632Z,26.90
2019-01-17T22:53:26.721Z,27.93
2019-01-17T22:55:55.553Z,26.17
2019-01-17T22:58:25.184Z,27.17
2019-01-17T23:01:28.246Z,27.67
2019-01-17T23:04:01.909Z,27.73
2019-01-17T23:06:33.382Z,25.13
2019-01-17T23:09:03.905Z,25.57
2019-01-17T23:11:34.588Z,25.23
2019-01-17T23:14:06.663Z,26.07
2019-01-17T23:16:37.065Z,23.37
2019-01-17T23:19:06.906Z,22.90
2019-01-17T23:21:37.619Z,25.83
2019-01-17T23:24:10.565Z,25.47
2019-01-17T23:26:40.713Z,24.27
2019-01-17T23:29:15.972Z,23.97
2019-01-17T23:31:45.218Z,24.90
2019-01-17T23:34:16.579Z,24.67
2019-01-17T23:36:48.899Z,25.80
2019-01-17T23:39:20.659Z,26.67
2019-01-17T23:41:52.436Z,21.77
2019-01-17T23:44:23.250Z,20.57
2019-01-17T23:46:54.159Z,25.90
2019-01-17T23:49:23.689Z,24.70
2019-01-17T23:51:56.181Z,27.63
2019-01-17T23:54:25.981Z,26.53
2019-01-17T23:56:55.852Z,30.40
2019-01-17T23:59:26.982Z,23.50
